sensor_id;sensor_type;location;lat;lon;timestamp;P1;durP1;ratioP1;P2;durP2;ratioP2
18520;SDS011;9390;51.244;6.982;2023-07-31T00:02:29;25.02;;;6.78;;
18520;SDS011;9390;51.244;6.982;2023-07-31T00:05:01;32.05;;;6.63;;
18520;SDS011;9390;51.244;6.982;2023-07-31T00:07:33;22.83;;;6.65;;
18520;SDS011;9390;51.244;6.982;2023-07-31T00:10:06;26.30;;;7.07;;
18520;SDS011;9390;51.244;6.982;2023-07-31T00:12:38;29.08;;;7.20;;
18520;SDS011;9390;51.244;6.982;2023-07-31T00:15:10;27.27;;;6.97;;
18520;SDS011;9390;51.244;6.982;2023-07-31T00:17:42;29.40;;;6.82;;
18520;SDS011;9390;51.244;6.982;2023-07-31T00:20:13;29.45;;;6.97;;
18520;SDS011;9390;51.244;6.982;2023-07-31T00:22:45;25.38;;;6.18;;
18520;SDS011;9390;51.244;6.982;2023-07-31T00:25:18;19.17;;;5.45;;
18520;SDS011;9390;51.244;6.982;2023-07-31T00:27:49;28.38;;;6.25;;
18520;SDS011;9390;51.244;6.982;2023-07-31T00:30:21;19.17;;;5.72;;
18520;SDS011;9390;51.244;6.982;2023-07-31T00:32:52;22.30;;;6.57;;
18520;SDS011;9390;51.244;6.982;2023-07-31T00:35:23;23.38;;;6.50;;
18520;SDS011;9390;51.244;6.982;2023-07-31T00:37:56;21.55;;;6.45;;
18520;SDS011;9390;51.244;6.982;2023-07-31T00:40:30;29.17;;;6.05;;
18520;SDS011;9390;51.244;6.982;2023-07-31T00:43:05;22.45;;;5.85;;
18520;SDS011;9390;51.244;6.982;2023-07-31T00:45:37;21.45;;;6.38;;
18520;SDS011;9390;51.244;6.982;2023-07-31T00:48:08;22.83;;;6.72;;
18520;SDS011;9390;51.244;6.982;2023-07-31T00:50:40;29.02;;;5.90;;
18520;SDS011;9390;51.244;6.982;2023-07-31T00:53:12;28.17;;;6.60;;
18520;SDS011;9390;51.244;6.982;2023-07-31T00:55:45;20.98;;;6.57;;
18520;SDS011;9390;51.244;6.982;2023-07-31T00:58:17;32.08;;;6.30;;
18520;SDS011;9390;51.244;6.982;2023-07-31T01:00:48;26.35;;;5.95;;
18520;SDS011;9390;51.244;6.982;2023-07-31T01:03:20;27.88;;;6.68;;
18520;SDS011;9390;51.244;6.982;2023-07-31T01:05:54;21.83;;;6.05;;
18520;SDS011;9390;51.244;6.982;2023-07-31T01:08:32;26.00;;;6.50;;
18520;SDS011;9390;51.244;6.982;2023-07-31T01:11:09;23.27;;;5.75;;
18520;SDS011;9390;51.244;6.982;2023-07-31T01:13:46;22.45;;;5.57;;
18520;SDS011;9390;51.244;6.982;2023-07-31T01:16:18;24.85;;;6.45;;
18520;SDS011;9390;51.244;6.982;2023-07-31T01:18:49;23.42;;;5.70;;
18520;SDS011;9390;51.244;6.982;2023-07-31T01:24:20;28.73;;;5.82;;
18520;SDS011;9390;51.244;6.982;2023-07-31T01:26:57;23.55;;;5.65;;
18520;SDS011;9390;51.244;6.982;2023-07-31T01:29:32;21.73;;;5.85;;
18520;SDS011;9390;51.244;6.982;2023-07-31T01:32:07;22.60;;;6.07;;
18520;SDS011;9390;51.244;6.982;2023-07-31T01:34:40;24.27;;;5.78;;
18520;SDS011;9390;51.244;6.982;2023-07-31T01:37:12;28.15;;;6.15;;
18520;SDS011;9390;51.244;6.982;2023-07-31T01:39:44;23.85;;;5.78;;
18520;SDS011;9390;51.244;6.982;2023-07-31T01:42:17;23.20;;;6.10;;
18520;SDS011;9390;51.244;6.982;2023-07-31T01:44:48;21.85;;;5.63;;
18520;SDS011;9390;51.244;6.982;2023-07-31T01:47:20;19.50;;;5.55;;
18520;SDS011;9390;51.244;6.982;2023-07-31T01:49:51;22.83;;;5.43;;
18520;SDS011;9390;51.244;6.982;2023-07-31T01:52:22;25.08;;;6.05;;
18520;SDS011;9390;51.244;6.982;2023-07-31T01:54:54;24.48;;;5.45;;
18520;SDS011;9390;51.244;6.982;2023-07-31T01:57:27;25.88;;;5.97;;
18520;SDS011;9390;51.244;6.982;2023-07-31T01:59:58;24.08;;;5.97;;
18520;SDS011;9390;51.244;6.982;2023-07-31T02:02:30;26.70;;;4.85;;
18520;SDS011;9390;51.244;6.982;2023-07-31T02:05:01;19.65;;;5.45;;
18520;SDS011;9390;51.244;6.982;2023-07-31T02:07:33;19.25;;;5.40;;
18520;SDS011;9390;51.244;6.982;2023-07-31T02:10:05;19.55;;;5.28;;
18520;SDS011;9390;51.244;6.982;2023-07-31T02:12:38;24.02;;;5.80;;
18520;SDS011;9390;51.244;6.982;2023-07-31T02:15:09;21.45;;;5.97;;
18520;SDS011;9390;51.244;6.982;2023-07-31T02:17:41;22.00;;;5.28;;
18520;SDS011;9390;51.244;6.982;2023-07-31T02:20:12;24.17;;;5.50;;
18520;SDS011;9390;51.244;6.982;2023-07-31T02:22:44;23.13;;;5.57;;
18520;SDS011;9390;51.244;6.982;2023-07-31T02:25:15;24.70;;;5.90;;
18520;SDS011;9390;51.244;6.982;2023-07-31T02:27:48;23.55;;;5.50;;
18520;SDS011;9390;51.244;6.982;2023-07-31T02:30:19;25.98;;;6.22;;
18520;SDS011;9390;51.244;6.982;2023-07-31T02:32:51;28.85;;;6.13;;
18520;SDS011;9390;51.244;6.982;2023-07-31T02:35:22;19.23;;;5.07;;
18520;SDS011;9390;51.244;6.982;2023-07-31T02:37:54;24.73;;;6.18;;
18520;SDS011;9390;51.244;6.982;2023-07-31T02:40:26;20.10;;;5.15;;
18520;SDS011;9390;51.244;6.982;2023-07-31T02:42:58;19.80;;;5.43;;
18520;SDS011;9390;51.244;6.982;2023-07-31T02:45:30;23.55;;;6.22;;
18520;SDS011;9390;51.244;6.982;2023-07-31T02:48:01;19.08;;;5.85;;
18520;SDS011;9390;51.244;6.982;2023-07-31T02:50:33;24.58;;;6.30;;
18520;SDS011;9390;51.244;6.982;2023-07-31T02:53:04;24.10;;;6.32;;
18520;SDS011;9390;51.244;6.982;2023-07-31T02:55:36;24.73;;;6.10;;
18520;SDS011;9390;51.244;6.982;2023-07-31T02:58:08;22.30;;;6.00;;
18520;SDS011;9390;51.244;6.982;2023-07-31T03:00:41;27.77;;;7.10;;
18520;SDS011;9390;51.244;6.982;2023-07-31T03:03:13;22.02;;;6.38;;
18520;SDS011;9390;51.244;6.982;2023-07-31T03:05:44;18.95;;;6.63;;
18520;SDS011;9390;51.244;6.982;2023-07-31T03:08:16;22.77;;;6.18;;
18520;SDS011;9390;51.244;6.982;2023-07-31T03:10:48;26.40;;;6.50;;
18520;SDS011;9390;51.244;6.982;2023-07-31T03:13:21;28.88;;;6.57;;
18520;SDS011;9390;51.244;6.982;2023-07-31T03:15:52;19.27;;;6.28;;
18520;SDS011;9390;51.244;6.982;2023-07-31T03:18:24;20.75;;;5.13;;
18520;SDS011;9390;51.244;6.982;2023-07-31T03:20:55;17.67;;;5.63;;
18520;SDS011;9390;51.244;6.982;2023-07-31T03:23:27;20.70;;;6.13;;
18520;SDS011;9390;51.244;6.982;2023-07-31T03:25:59;20.08;;;5.63;;
18520;SDS011;9390;51.244;6.982;2023-07-31T03:28:32;21.83;;;6.07;;
18520;SDS011;9390;51.244;6.982;2023-07-31T03:31:03;21.25;;;6.63;;
18520;SDS011;9390;51.244;6.982;2023-07-31T03:33:35;22.60;;;6.15;;
18520;SDS011;9390;51.244;6.982;2023-07-31T03:36:06;26.17;;;6.55;;
18520;SDS011;9390;51.244;6.982;2023-07-31T03:38:38;17.73;;;6.03;;
18520;SDS011;9390;51.244;6.982;2023-07-31T03:41:10;22.15;;;6.00;;
18520;SDS011;9390;51.244;6.982;2023-07-31T03:43:42;16.67;;;5.88;;
18520;SDS011;9390;51.244;6.982;2023-07-31T03:46:14;23.75;;;6.13;;
18520;SDS011;9390;51.244;6.982;2023-07-31T03:48:45;20.63;;;6.07;;
18520;SDS011;9390;51.244;6.982;2023-07-31T03:51:17;19.52;;;6.25;;
18520;SDS011;9390;51.244;6.982;2023-07-31T03:53:48;22.20;;;6.38;;
18520;SDS011;9390;51.244;6.982;2023-07-31T03:56:20;19.95;;;6.55;;
18520;SDS011;9390;51.244;6.982;2023-07-31T03:58:53;22.17;;;5.93;;
18520;SDS011;9390;51.244;6.982;2023-07-31T04:01:25;16.25;;;6.15;;
18520;SDS011;9390;51.244;6.982;2023-07-31T04:03:57;21.75;;;6.47;;
18520;SDS011;9390;51.244;6.982;2023-07-31T04:06:28;25.27;;;6.43;;
18520;SDS011;9390;51.244;6.982;2023-07-31T04:09:01;25.25;;;5.95;;
18520;SDS011;9390;51.244;6.982;2023-07-31T04:11:33;25.67;;;7.10;;
18520;SDS011;9390;51.244;6.982;2023-07-31T04:14:06;18.23;;;5.78;;
18520;SDS011;9390;51.244;6.982;2023-07-31T04:16:37;17.23;;;6.20;;
18520;SDS011;9390;51.244;6.982;2023-07-31T04:19:09;19.45;;;6.43;;
18520;SDS011;9390;51.244;6.982;2023-07-31T04:21:41;17.93;;;5.43;;
18520;SDS011;9390;51.244;6.982;2023-07-31T04:24:12;24.30;;;6.28;;
18520;SDS011;9390;51.244;6.982;2023-07-31T04:26:44;21.17;;;6.22;;
18520;SDS011;9390;51.244;6.982;2023-07-31T04:29:16;23.15;;;5.90;;
18520;SDS011;9390;51.244;6.982;2023-07-31T04:31:48;24.33;;;6.13;;
18520;SDS011;9390;51.244;6.982;2023-07-31T04:34:19;20.58;;;6.50;;
18520;SDS011;9390;51.244;6.982;2023-07-31T04:36:51;23.70;;;6.25;;
18520;SDS011;9390;51.244;6.982;2023-07-31T04:39:22;18.52;;;5.93;;
18520;SDS011;9390;51.244;6.982;2023-07-31T04:41:54;23.40;;;6.10;;
18520;SDS011;9390;51.244;6.982;2023-07-31T04:44:26;20.13;;;6.43;;
18520;SDS011;9390;51.244;6.982;2023-07-31T04:46:58;21.02;;;6.38;;
18520;SDS011;9390;51.244;6.982;2023-07-31T04:49:29;22.80;;;6.07;;
18520;SDS011;9390;51.244;6.982;2023-07-31T04:52:01;23.50;;;5.97;;
18520;SDS011;9390;51.244;6.982;2023-07-31T04:54:32;23.95;;;6.80;;
18520;SDS011;9390;51.244;6.982;2023-07-31T04:57:04;21.88;;;6.90;;
18520;SDS011;9390;51.244;6.982;2023-07-31T04:59:37;20.13;;;6.55;;
18520;SDS011;9390;51.244;6.982;2023-07-31T05:02:11;14.43;;;5.80;;
18520;SDS011;9390;51.244;6.982;2023-07-31T05:04:43;19.40;;;6.10;;
18520;SDS011;9390;51.244;6.982;2023-07-31T05:07:14;20.38;;;6.57;;
18520;SDS011;9390;51.244;6.982;2023-07-31T05:09:47;26.15;;;6.40;;
18520;SDS011;9390;51.244;6.982;2023-07-31T05:12:18;19.27;;;6.78;;
18520;SDS011;9390;51.244;6.982;2023-07-31T05:14:51;30.70;;;6.95;;
18520;SDS011;9390;51.244;6.982;2023-07-31T05:17:22;20.10;;;6.43;;
18520;SDS011;9390;51.244;6.982;2023-07-31T05:19:54;24.45;;;6.13;;
18520;SDS011;9390;51.244;6.982;2023-07-31T05:22:25;23.67;;;6.57;;
18520;SDS011;9390;51.244;6.982;2023-07-31T05:24:56;19.80;;;6.00;;
18520;SDS011;9390;51.244;6.982;2023-07-31T05:27:28;22.30;;;7.45;;
18520;SDS011;9390;51.244;6.982;2023-07-31T05:30:01;23.63;;;7.53;;
18520;SDS011;9390;51.244;6.982;2023-07-31T05:32:32;15.93;;;6.55;;
18520;SDS011;9390;51.244;6.982;2023-07-31T05:35:04;16.23;;;6.50;;
18520;SDS011;9390;51.244;6.982;2023-07-31T05:37:36;19.73;;;6.70;;
18520;SDS011;9390;51.244;6.982;2023-07-31T05:40:08;18.50;;;6.50;;
18520;SDS011;9390;51.244;6.982;2023-07-31T05:42:40;21.65;;;6.95;;
18520;SDS011;9390;51.244;6.982;2023-07-31T05:45:13;21.00;;;6.90;;
18520;SDS011;9390;51.244;6.982;2023-07-31T05:47:44;19.15;;;6.47;;
18520;SDS011;9390;51.244;6.982;2023-07-31T05:50:16;20.23;;;6.43;;
18520;SDS011;9390;51.244;6.982;2023-07-31T05:52:47;16.65;;;6.60;;
18520;SDS011;9390;51.244;6.982;2023-07-31T05:55:18;18.35;;;6.57;;
18520;SDS011;9390;51.244;6.982;2023-07-31T05:57:51;21.50;;;6.80;;
18520;SDS011;9390;51.244;6.982;2023-07-31T06:00:23;17.02;;;7.07;;
18520;SDS011;9390;51.244;6.982;2023-07-31T06:02:55;17.45;;;5.70;;
18520;SDS011;9390;51.244;6.982;2023-07-31T06:05:26;16.80;;;6.03;;
18520;SDS011;9390;51.244;6.982;2023-07-31T06:10:30;16.55;;;6.13;;
18520;SDS011;9390;51.244;6.982;2023-07-31T06:13:02;18.08;;;5.53;;
18520;SDS011;9390;51.244;6.982;2023-07-31T06:15:35;15.25;;;5.53;;
18520;SDS011;9390;51.244;6.982;2023-07-31T06:18:06;15.45;;;5.82;;
18520;SDS011;9390;51.244;6.982;2023-07-31T06:20:38;12.85;;;5.18;;
18520;SDS011;9390;51.244;6.982;2023-07-31T06:23:10;19.88;;;5.65;;
18520;SDS011;9390;51.244;6.982;2023-07-31T06:25:42;15.80;;;5.80;;
18520;SDS011;9390;51.244;6.982;2023-07-31T06:28:13;15.63;;;5.30;;
18520;SDS011;9390;51.244;6.982;2023-07-31T06:30:46;15.38;;;5.45;;
18520;SDS011;9390;51.244;6.982;2023-07-31T06:33:17;17.42;;;6.15;;
18520;SDS011;9390;51.244;6.982;2023-07-31T06:35:49;17.42;;;5.97;;
18520;SDS011;9390;51.244;6.982;2023-07-31T06:38:22;20.08;;;5.88;;
18520;SDS011;9390;51.244;6.982;2023-07-31T06:40:55;14.82;;;6.05;;
18520;SDS011;9390;51.244;6.982;2023-07-31T06:43:26;22.60;;;5.97;;
18520;SDS011;9390;51.244;6.982;2023-07-31T06:45:59;14.07;;;6.22;;
18520;SDS011;9390;51.244;6.982;2023-07-31T06:48:31;18.75;;;6.38;;
18520;SDS011;9390;51.244;6.982;2023-07-31T06:51:02;17.40;;;6.45;;
18520;SDS011;9390;51.244;6.982;2023-07-31T06:53:34;15.13;;;6.47;;
18520;SDS011;9390;51.244;6.982;2023-07-31T06:56:05;19.00;;;7.03;;
18520;SDS011;9390;51.244;6.982;2023-07-31T06:58:37;16.10;;;6.40;;
18520;SDS011;9390;51.244;6.982;2023-07-31T07:01:09;19.55;;;6.90;;
18520;SDS011;9390;51.244;6.982;2023-07-31T07:03:41;22.77;;;6.80;;
18520;SDS011;9390;51.244;6.982;2023-07-31T07:06:12;21.70;;;6.32;;
18520;SDS011;9390;51.244;6.982;2023-07-31T07:08:44;18.45;;;7.18;;
18520;SDS011;9390;51.244;6.982;2023-07-31T07:11:15;18.10;;;6.65;;
18520;SDS011;9390;51.244;6.982;2023-07-31T07:13:46;17.80;;;6.40;;
18520;SDS011;9390;51.244;6.982;2023-07-31T07:16:19;16.65;;;6.32;;
18520;SDS011;9390;51.244;6.982;2023-07-31T07:18:51;16.80;;;6.22;;
18520;SDS011;9390;51.244;6.982;2023-07-31T07:21:22;20.38;;;6.43;;
18520;SDS011;9390;51.244;6.982;2023-07-31T07:23:53;23.27;;;6.43;;
18520;SDS011;9390;51.244;6.982;2023-07-31T07:26:25;15.90;;;5.70;;
18520;SDS011;9390;51.244;6.982;2023-07-31T07:28:57;18.23;;;6.43;;
18520;SDS011;9390;51.244;6.982;2023-07-31T07:31:29;18.15;;;6.80;;
18520;SDS011;9390;51.244;6.982;2023-07-31T07:34:01;21.13;;;6.85;;
18520;SDS011;9390;51.244;6.982;2023-07-31T07:36:33;16.05;;;6.35;;
18520;SDS011;9390;51.244;6.982;2023-07-31T07:39:04;17.92;;;5.72;;
18520;SDS011;9390;51.244;6.982;2023-07-31T07:41:36;21.90;;;6.57;;
18520;SDS011;9390;51.244;6.982;2023-07-31T07:44:07;23.23;;;6.45;;
18520;SDS011;9390;51.244;6.982;2023-07-31T07:46:40;21.83;;;6.57;;
18520;SDS011;9390;51.244;6.982;2023-07-31T07:49:12;26.50;;;7.05;;
18520;SDS011;9390;51.244;6.982;2023-07-31T07:51:43;23.45;;;6.07;;
18520;SDS011;9390;51.244;6.982;2023-07-31T07:54:15;23.88;;;6.55;;
18520;SDS011;9390;51.244;6.982;2023-07-31T07:56:46;24.70;;;6.78;;
18520;SDS011;9390;51.244;6.982;2023-07-31T07:59:18;21.58;;;6.00;;
18520;SDS011;9390;51.244;6.982;2023-07-31T08:01:51;15.43;;;6.22;;
18520;SDS011;9390;51.244;6.982;2023-07-31T08:04:22;16.33;;;6.50;;
18520;SDS011;9390;51.244;6.982;2023-07-31T08:06:53;28.13;;;7.68;;
18520;SDS011;9390;51.244;6.982;2023-07-31T08:09:25;20.33;;;6.70;;
18520;SDS011;9390;51.244;6.982;2023-07-31T08:11:56;19.48;;;5.78;;
18520;SDS011;9390;51.244;6.982;2023-07-31T08:14:32;19.92;;;5.95;;
18520;SDS011;9390;51.244;6.982;2023-07-31T08:17:05;19.20;;;6.45;;
18520;SDS011;9390;51.244;6.982;2023-07-31T08:19:36;19.60;;;6.00;;
18520;SDS011;9390;51.244;6.982;2023-07-31T08:22:08;21.00;;;6.80;;
18520;SDS011;9390;51.244;6.982;2023-07-31T08:24:39;20.30;;;6.22;;
18520;SDS011;9390;51.244;6.982;2023-07-31T08:27:10;19.23;;;6.05;;
18520;SDS011;9390;51.244;6.982;2023-07-31T08:29:42;22.60;;;6.10;;
18520;SDS011;9390;51.244;6.982;2023-07-31T08:32:15;21.60;;;5.65;;
18520;SDS011;9390;51.244;6.982;2023-07-31T08:34:46;15.50;;;6.25;;
18520;SDS011;9390;51.244;6.982;2023-07-31T08:37:17;17.80;;;6.18;;
18520;SDS011;9390;51.244;6.982;2023-07-31T08:39:49;21.13;;;6.22;;
18520;SDS011;9390;51.244;6.982;2023-07-31T08:42:20;20.98;;;6.30;;
18520;SDS011;9390;51.244;6.982;2023-07-31T08:44:52;22.92;;;6.80;;
18520;SDS011;9390;51.244;6.982;2023-07-31T08:47:25;22.15;;;6.68;;
18520;SDS011;9390;51.244;6.982;2023-07-31T08:49:56;18.95;;;6.43;;
18520;SDS011;9390;51.244;6.982;2023-07-31T08:52:28;20.85;;;6.13;;
18520;SDS011;9390;51.244;6.982;2023-07-31T08:55:00;16.58;;;7.68;;
18520;SDS011;9390;51.244;6.982;2023-07-31T08:57:31;20.98;;;6.20;;
18520;SDS011;9390;51.244;6.982;2023-07-31T09:00:04;15.27;;;5.63;;
18520;SDS011;9390;51.244;6.982;2023-07-31T09:05:12;24.25;;;5.70;;
18520;SDS011;9390;51.244;6.982;2023-07-31T09:07:43;19.88;;;6.28;;
18520;SDS011;9390;51.244;6.982;2023-07-31T09:10:17;19.08;;;6.13;;
18520;SDS011;9390;51.244;6.982;2023-07-31T09:12:49;19.00;;;6.57;;
18520;SDS011;9390;51.244;6.982;2023-07-31T09:15:21;19.65;;;5.53;;
18520;SDS011;9390;51.244;6.982;2023-07-31T09:20:31;11.90;;;5.28;;
18520;SDS011;9390;51.244;6.982;2023-07-31T09:23:06;17.00;;;5.85;;
18520;SDS011;9390;51.244;6.982;2023-07-31T09:25:39;20.55;;;6.15;;
18520;SDS011;9390;51.244;6.982;2023-07-31T09:28:11;15.93;;;6.53;;
18520;SDS011;9390;51.244;6.982;2023-07-31T09:30:46;19.75;;;5.90;;
18520;SDS011;9390;51.244;6.982;2023-07-31T09:33:20;20.10;;;6.25;;
18520;SDS011;9390;51.244;6.982;2023-07-31T09:35:51;16.92;;;6.10;;
18520;SDS011;9390;51.244;6.982;2023-07-31T09:38:22;16.58;;;6.57;;
18520;SDS011;9390;51.244;6.982;2023-07-31T09:40:55;15.05;;;6.13;;
18520;SDS011;9390;51.244;6.982;2023-07-31T09:43:26;17.50;;;6.00;;
18520;SDS011;9390;51.244;6.982;2023-07-31T09:45:58;16.10;;;6.13;;
18520;SDS011;9390;51.244;6.982;2023-07-31T09:48:31;17.27;;;5.90;;
18520;SDS011;9390;51.244;6.982;2023-07-31T09:51:03;19.85;;;5.95;;
18520;SDS011;9390;51.244;6.982;2023-07-31T09:53:35;18.65;;;5.82;;
18520;SDS011;9390;51.244;6.982;2023-07-31T09:56:07;15.52;;;6.22;;
18520;SDS011;9390;51.244;6.982;2023-07-31T09:58:38;18.15;;;6.53;;
18520;SDS011;9390;51.244;6.982;2023-07-31T10:01:10;28.35;;;6.93;;
18520;SDS011;9390;51.244;6.982;2023-07-31T10:03:43;22.05;;;6.60;;
18520;SDS011;9390;51.244;6.982;2023-07-31T10:06:16;24.67;;;6.95;;
18520;SDS011;9390;51.244;6.982;2023-07-31T10:08:49;19.10;;;7.20;;
18520;SDS011;9390;51.244;6.982;2023-07-31T10:11:22;24.52;;;7.65;;
18520;SDS011;9390;51.244;6.982;2023-07-31T10:13:56;19.85;;;6.90;;
18520;SDS011;9390;51.244;6.982;2023-07-31T10:16:27;22.60;;;6.88;;
18520;SDS011;9390;51.244;6.982;2023-07-31T10:19:01;32.93;;;7.57;;
18520;SDS011;9390;51.244;6.982;2023-07-31T10:21:32;23.63;;;7.30;;
18520;SDS011;9390;51.244;6.982;2023-07-31T10:24:05;18.95;;;6.70;;
18520;SDS011;9390;51.244;6.982;2023-07-31T10:26:37;24.83;;;7.13;;
18520;SDS011;9390;51.244;6.982;2023-07-31T10:29:09;23.65;;;6.53;;
18520;SDS011;9390;51.244;6.982;2023-07-31T10:31:40;18.20;;;6.13;;
18520;SDS011;9390;51.244;6.982;2023-07-31T10:34:13;26.52;;;6.85;;
18520;SDS011;9390;51.244;6.982;2023-07-31T10:36:45;18.40;;;6.57;;
18520;SDS011;9390;51.244;6.982;2023-07-31T10:39:36;18.25;;;5.68;;
18520;SDS011;9390;51.244;6.982;2023-07-31T10:42:09;20.77;;;7.18;;
18520;SDS011;9390;51.244;6.982;2023-07-31T10:44:46;29.92;;;7.78;;
18520;SDS011;9390;51.244;6.982;2023-07-31T10:47:17;24.92;;;6.88;;
18520;SDS011;9390;51.244;6.982;2023-07-31T10:49:50;25.90;;;7.45;;
18520;SDS011;9390;51.244;6.982;2023-07-31T10:52:22;24.02;;;7.35;;
18520;SDS011;9390;51.244;6.982;2023-07-31T10:57:56;20.55;;;6.72;;
18520;SDS011;9390;51.244;6.982;2023-07-31T11:00:29;23.20;;;6.93;;
18520;SDS011;9390;51.244;6.982;2023-07-31T11:03:01;22.77;;;8.00;;
18520;SDS011;9390;51.244;6.982;2023-07-31T11:05:42;25.80;;;6.93;;
18520;SDS011;9390;51.244;6.982;2023-07-31T11:08:21;18.77;;;6.95;;
18520;SDS011;9390;51.244;6.982;2023-07-31T11:11:04;19.00;;;6.55;;
18520;SDS011;9390;51.244;6.982;2023-07-31T11:13:40;24.00;;;6.60;;
18520;SDS011;9390;51.244;6.982;2023-07-31T11:16:13;15.65;;;6.20;;
18520;SDS011;9390;51.244;6.982;2023-07-31T11:18:45;20.87;;;6.50;;
18520;SDS011;9390;51.244;6.982;2023-07-31T11:21:20;16.77;;;5.72;;
18520;SDS011;9390;51.244;6.982;2023-07-31T11:23:53;12.68;;;4.90;;
18520;SDS011;9390;51.244;6.982;2023-07-31T11:26:27;11.23;;;3.88;;
18520;SDS011;9390;51.244;6.982;2023-07-31T11:29:00;12.93;;;4.03;;
18520;SDS011;9390;51.244;6.982;2023-07-31T11:31:32;12.75;;;4.30;;
18520;SDS011;9390;51.244;6.982;2023-07-31T11:34:09;10.98;;;4.03;;
18520;SDS011;9390;51.244;6.982;2023-07-31T11:36:42;12.32;;;3.65;;
18520;SDS011;9390;51.244;6.982;2023-07-31T11:39:23;14.68;;;3.75;;
18520;SDS011;9390;51.244;6.982;2023-07-31T11:41:58;11.50;;;3.80;;
18520;SDS011;9390;51.244;6.982;2023-07-31T11:44:37;10.80;;;3.35;;
18520;SDS011;9390;51.244;6.982;2023-07-31T11:47:09;9.07;;;3.35;;
18520;SDS011;9390;51.244;6.982;2023-07-31T11:49:40;8.88;;;3.38;;
18520;SDS011;9390;51.244;6.982;2023-07-31T11:52:13;7.85;;;3.10;;
18520;SDS011;9390;51.244;6.982;2023-07-31T11:57:16;9.05;;;3.17;;
18520;SDS011;9390;51.244;6.982;2023-07-31T11:59:47;8.65;;;3.05;;
18520;SDS011;9390;51.244;6.982;2023-07-31T12:02:19;8.52;;;3.25;;
18520;SDS011;9390;51.244;6.982;2023-07-31T12:04:51;10.57;;;3.53;;
18520;SDS011;9390;51.244;6.982;2023-07-31T12:07:24;10.60;;;3.40;;
18520;SDS011;9390;51.244;6.982;2023-07-31T12:09:56;9.30;;;3.33;;
18520;SDS011;9390;51.244;6.982;2023-07-31T12:12:27;10.07;;;2.80;;
18520;SDS011;9390;51.244;6.982;2023-07-31T12:14:59;7.80;;;3.17;;
18520;SDS011;9390;51.244;6.982;2023-07-31T12:17:30;7.20;;;3.05;;
18520;SDS011;9390;51.244;6.982;2023-07-31T12:20:03;10.07;;;3.33;;
18520;SDS011;9390;51.244;6.982;2023-07-31T12:22:38;7.78;;;3.25;;
18520;SDS011;9390;51.244;6.982;2023-07-31T12:25:14;9.20;;;3.10;;
18520;SDS011;9390;51.244;6.982;2023-07-31T12:27:46;9.70;;;3.38;;
18520;SDS011;9390;51.244;6.982;2023-07-31T12:30:27;7.80;;;3.10;;
18520;SDS011;9390;51.244;6.982;2023-07-31T12:33:02;5.55;;;2.72;;
18520;SDS011;9390;51.244;6.982;2023-07-31T12:35:34;8.30;;;3.60;;
18520;SDS011;9390;51.244;6.982;2023-07-31T12:40:40;6.72;;;3.63;;
18520;SDS011;9390;51.244;6.982;2023-07-31T12:45:44;7.28;;;3.10;;
18520;SDS011;9390;51.244;6.982;2023-07-31T12:48:17;7.70;;;3.00;;
18520;SDS011;9390;51.244;6.982;2023-07-31T12:50:48;9.40;;;3.80;;
18520;SDS011;9390;51.244;6.982;2023-07-31T12:53:21;11.93;;;3.22;;
18520;SDS011;9390;51.244;6.982;2023-07-31T12:55:52;9.02;;;3.33;;
18520;SDS011;9390;51.244;6.982;2023-07-31T12:58:24;8.73;;;4.03;;
18520;SDS011;9390;51.244;6.982;2023-07-31T13:00:55;8.95;;;3.75;;
18520;SDS011;9390;51.244;6.982;2023-07-31T13:03:27;8.85;;;3.80;;
18520;SDS011;9390;51.244;6.982;2023-07-31T13:05:58;7.53;;;3.17;;
18520;SDS011;9390;51.244;6.982;2023-07-31T13:08:31;11.20;;;3.58;;
18520;SDS011;9390;51.244;6.982;2023-07-31T13:11:03;9.55;;;3.50;;
18520;SDS011;9390;51.244;6.982;2023-07-31T13:13:34;9.27;;;3.80;;
18520;SDS011;9390;51.244;6.982;2023-07-31T13:16:06;11.40;;;3.83;;
18520;SDS011;9390;51.244;6.982;2023-07-31T13:18:37;9.88;;;4.13;;
18520;SDS011;9390;51.244;6.982;2023-07-31T13:21:08;9.45;;;4.15;;
18520;SDS011;9390;51.244;6.982;2023-07-31T13:23:41;9.23;;;3.97;;
18520;SDS011;9390;51.244;6.982;2023-07-31T13:26:13;10.50;;;4.43;;
18520;SDS011;9390;51.244;6.982;2023-07-31T13:28:44;10.55;;;4.20;;
18520;SDS011;9390;51.244;6.982;2023-07-31T13:31:15;14.20;;;4.57;;
18520;SDS011;9390;51.244;6.982;2023-07-31T13:33:47;11.63;;;4.22;;
18520;SDS011;9390;51.244;6.982;2023-07-31T13:36:18;10.43;;;4.22;;
18520;SDS011;9390;51.244;6.982;2023-07-31T13:38:51;11.88;;;4.68;;
18520;SDS011;9390;51.244;6.982;2023-07-31T13:41:22;9.60;;;4.35;;
18520;SDS011;9390;51.244;6.982;2023-07-31T13:43:54;11.38;;;4.80;;
18520;SDS011;9390;51.244;6.982;2023-07-31T13:46:25;12.23;;;4.47;;
18520;SDS011;9390;51.244;6.982;2023-07-31T13:48:57;10.38;;;4.60;;
18520;SDS011;9390;51.244;6.982;2023-07-31T13:51:29;12.73;;;4.75;;
18520;SDS011;9390;51.244;6.982;2023-07-31T13:54:02;11.10;;;4.50;;
18520;SDS011;9390;51.244;6.982;2023-07-31T13:59:05;14.85;;;4.40;;
18520;SDS011;9390;51.244;6.982;2023-07-31T14:01:36;10.85;;;4.82;;
18520;SDS011;9390;51.244;6.982;2023-07-31T14:04:08;8.77;;;4.47;;
18520;SDS011;9390;51.244;6.982;2023-07-31T14:06:39;11.23;;;4.13;;
18520;SDS011;9390;51.244;6.982;2023-07-31T14:09:12;11.55;;;3.80;;
18520;SDS011;9390;51.244;6.982;2023-07-31T14:11:44;9.02;;;4.30;;
18520;SDS011;9390;51.244;6.982;2023-07-31T14:14:15;11.80;;;4.50;;
18520;SDS011;9390;51.244;6.982;2023-07-31T14:16:48;9.57;;;4.15;;
18520;SDS011;9390;51.244;6.982;2023-07-31T14:19:19;9.40;;;4.20;;
18520;SDS011;9390;51.244;6.982;2023-07-31T14:21:51;9.93;;;3.47;;
18520;SDS011;9390;51.244;6.982;2023-07-31T14:24:23;12.68;;;4.35;;
18520;SDS011;9390;51.244;6.982;2023-07-31T14:26:55;7.70;;;3.50;;
18520;SDS011;9390;51.244;6.982;2023-07-31T14:29:26;8.85;;;3.60;;
18520;SDS011;9390;51.244;6.982;2023-07-31T14:31:58;9.73;;;3.92;;
18520;SDS011;9390;51.244;6.982;2023-07-31T14:34:29;10.68;;;3.95;;
18520;SDS011;9390;51.244;6.982;2023-07-31T14:37:01;9.63;;;3.63;;
18520;SDS011;9390;51.244;6.982;2023-07-31T14:39:34;9.70;;;3.60;;
18520;SDS011;9390;51.244;6.982;2023-07-31T14:42:05;9.60;;;4.07;;
18520;SDS011;9390;51.244;6.982;2023-07-31T14:44:37;9.07;;;3.35;;
18520;SDS011;9390;51.244;6.982;2023-07-31T14:47:08;10.13;;;4.10;;
18520;SDS011;9390;51.244;6.982;2023-07-31T14:49:40;8.85;;;3.85;;
18520;SDS011;9390;51.244;6.982;2023-07-31T14:52:11;10.85;;;3.78;;
18520;SDS011;9390;51.244;6.982;2023-07-31T14:54:44;8.15;;;3.80;;
18520;SDS011;9390;51.244;6.982;2023-07-31T14:57:16;8.40;;;3.63;;
18520;SDS011;9390;51.244;6.982;2023-07-31T14:59:47;11.32;;;4.18;;
18520;SDS011;9390;51.244;6.982;2023-07-31T15:02:19;9.50;;;3.88;;
18520;SDS011;9390;51.244;6.982;2023-07-31T15:04:50;11.50;;;4.25;;
18520;SDS011;9390;51.244;6.982;2023-07-31T15:07:22;10.55;;;3.92;;
18520;SDS011;9390;51.244;6.982;2023-07-31T15:09:54;8.05;;;3.78;;
18520;SDS011;9390;51.244;6.982;2023-07-31T15:12:26;8.93;;;3.95;;
18520;SDS011;9390;51.244;6.982;2023-07-31T15:14:57;10.63;;;4.47;;
18520;SDS011;9390;51.244;6.982;2023-07-31T15:17:29;9.40;;;4.45;;
18520;SDS011;9390;51.244;6.982;2023-07-31T15:20:00;10.80;;;4.43;;
18520;SDS011;9390;51.244;6.982;2023-07-31T15:22:32;9.85;;;4.38;;
18520;SDS011;9390;51.244;6.982;2023-07-31T15:25:05;8.85;;;4.22;;
18520;SDS011;9390;51.244;6.982;2023-07-31T15:27:37;10.52;;;4.35;;
18520;SDS011;9390;51.244;6.982;2023-07-31T15:30:09;9.77;;;4.35;;
18520;SDS011;9390;51.244;6.982;2023-07-31T15:32:41;10.00;;;4.40;;
18520;SDS011;9390;51.244;6.982;2023-07-31T15:35:18;8.82;;;4.05;;
18520;SDS011;9390;51.244;6.982;2023-07-31T15:37:49;9.30;;;4.30;;
18520;SDS011;9390;51.244;6.982;2023-07-31T15:40:22;12.95;;;4.10;;
18520;SDS011;9390;51.244;6.982;2023-07-31T15:42:53;10.48;;;4.50;;
18520;SDS011;9390;51.244;6.982;2023-07-31T15:45:25;9.13;;;3.97;;